createdAt,value
2022-10-09T00:01:06.235Z,23.05
2022-10-09T00:03:34.482Z,24.52
2022-10-09T00:06:01.576Z,23.20
2022-10-09T00:08:28.314Z,23.67
2022-10-09T00:10:55.444Z,23.10
2022-10-09T00:13:22.679Z,23.40
2022-10-09T00:15:49.411Z,22.81
2022-10-09T00:18:18.576Z,22.74
2022-10-09T00:20:46.882Z,22.17
2022-10-09T00:23:17.703Z,23.00
2022-10-09T00:25:58.360Z,23.48
2022-10-09T00:28:27.372Z,24.84
2022-10-09T00:30:54.641Z,23.86
2022-10-09T00:33:21.950Z,23.83
2022-10-09T00:35:49.104Z,24.59
2022-10-09T00:38:16.876Z,25.08
2022-10-09T00:40:43.615Z,24.97
2022-10-09T00:43:37.820Z,23.92
2022-10-09T00:46:05.206Z,25.65
2022-10-09T00:48:33.798Z,24.41
2022-10-09T00:51:02.177Z,24.75
2022-10-09T00:53:30.807Z,23.08
2022-10-09T00:55:58.423Z,24.35
2022-10-09T00:58:25.870Z,23.98
2022-10-09T01:00:53.257Z,22.96
2022-10-09T01:03:19.985Z,22.93
2022-10-09T01:06:10.442Z,23.10
2022-10-09T01:09:01.334Z,23.43
2022-10-09T01:11:32.181Z,24.24
2022-10-09T01:14:17.239Z,23.74
2022-10-09T01:16:53.650Z,24.06
2022-10-09T01:19:44.991Z,23.00
2022-10-09T01:22:33.701Z,23.46
2022-10-09T01:25:07.500Z,23.09
2022-10-09T01:27:37.350Z,22.88
2022-10-09T01:30:08.502Z,22.62
2022-10-09T01:32:47.563Z,23.20
2022-10-09T01:35:15.609Z,23.02
2022-10-09T01:37:45.786Z,24.60
2022-10-09T01:40:16.217Z,24.42
2022-10-09T01:42:43.386Z,23.71
2022-10-09T01:45:10.951Z,24.74
2022-10-09T01:47:38.381Z,25.12
2022-10-09T01:50:27.437Z,26.55
2022-10-09T01:53:00.321Z,24.50
2022-10-09T01:56:03.791Z,24.85
2022-10-09T01:58:47.456Z,24.87
2022-10-09T02:01:17.986Z,23.68
2022-10-09T02:03:49.086Z,24.97
2022-10-09T02:06:17.750Z,23.99
2022-10-09T02:08:47.119Z,25.22
2022-10-09T02:11:15.443Z,24.04
2022-10-09T02:13:44.596Z,24.13
2022-10-09T02:16:22.556Z,24.55
2022-10-09T02:18:58.377Z,25.58
2022-10-09T02:21:30.556Z,25.96
2022-10-09T02:23:59.099Z,25.00
2022-10-09T02:26:26.995Z,24.69
2022-10-09T02:28:54.783Z,24.78
2022-10-09T02:31:31.167Z,25.64
2022-10-09T02:34:04.094Z,26.16
2022-10-09T02:36:31.713Z,25.42
2022-10-09T02:38:58.709Z,24.41
2022-10-09T02:41:26.615Z,26.90
2022-10-09T02:43:53.847Z,25.73
2022-10-09T02:46:21.150Z,26.97
2022-10-09T02:48:48.293Z,28.74
2022-10-09T02:51:15.038Z,26.73
2022-10-09T02:53:41.830Z,25.60
2022-10-09T02:56:08.914Z,25.72
2022-10-09T02:58:36.401Z,24.53
2022-10-09T03:01:05.076Z,28.45
2022-10-09T03:03:32.490Z,26.41
2022-10-09T03:06:02.397Z,26.12
2022-10-09T03:08:29.191Z,25.53
2022-10-09T03:10:56.389Z,26.03
2022-10-09T03:13:23.831Z,25.91
2022-10-09T03:15:50.608Z,24.83
2022-10-09T03:18:18.286Z,25.95
2022-10-09T03:20:45.306Z,26.68
2022-10-09T03:23:12.150Z,26.48
2022-10-09T03:25:39.085Z,24.53
2022-10-09T03:28:05.917Z,26.52
2022-10-09T03:30:33.474Z,27.01
2022-10-09T03:33:00.278Z,25.80
2022-10-09T03:35:26.970Z,24.61
2022-10-09T03:37:53.645Z,25.86
2022-10-09T03:40:20.642Z,26.79
2022-10-09T03:42:47.947Z,27.24
2022-10-09T03:45:15.469Z,25.55
2022-10-09T03:47:42.123Z,24.92
2022-10-09T03:50:09.349Z,26.17
2022-10-09T03:52:36.416Z,26.07
2022-10-09T03:55:04.966Z,27.54
2022-10-09T03:57:31.924Z,27.83
2022-10-09T03:59:58.614Z,27.34
2022-10-09T04:02:25.588Z,29.01
2022-10-09T04:04:52.364Z,28.53
2022-10-09T04:07:19.109Z,28.90
2022-10-09T04:09:45.832Z,27.68
2022-10-09T04:12:12.525Z,26.29
2022-10-09T04:14:39.514Z,26.99
2022-10-09T04:17:06.264Z,25.31
2022-10-09T04:19:33.451Z,25.01
2022-10-09T04:22:00.545Z,27.92
2022-10-09T04:24:27.264Z,26.38
2022-10-09T04:26:54.046Z,27.88
2022-10-09T04:29:21.046Z,25.75
2022-10-09T04:31:47.913Z,26.45
2022-10-09T04:34:15.476Z,26.80
2022-10-09T04:36:42.193Z,25.05
2022-10-09T04:39:08.901Z,23.57
2022-10-09T04:41:38.263Z,23.13
2022-10-09T04:44:06.005Z,23.84
2022-10-09T04:46:32.902Z,22.20
2022-10-09T04:49:00.361Z,22.52
2022-10-09T04:51:27.058Z,22.94
2022-10-09T04:54:00.302Z,23.51
2022-10-09T04:56:27.405Z,22.85
2022-10-09T04:58:54.115Z,23.61
2022-10-09T05:01:25.990Z,22.71
2022-10-09T05:03:53.483Z,22.53
2022-10-09T05:06:22.020Z,22.48
2022-10-09T05:08:49.498Z,21.95
2022-10-09T05:11:19.622Z,21.66
2022-10-09T05:13:49.665Z,22.06
2022-10-09T05:16:19.722Z,22.55
2022-10-09T05:18:49.717Z,22.84
2022-10-09T05:21:17.593Z,23.51
2022-10-09T05:23:44.454Z,23.11
2022-10-09T05:26:14.877Z,23.44
2022-10-09T05:28:42.406Z,24.55
2022-10-09T05:31:09.621Z,23.03
2022-10-09T05:33:36.802Z,23.35
2022-10-09T05:36:05.850Z,23.41
2022-10-09T05:38:34.784Z,25.73
2022-10-09T05:41:04.962Z,22.57
2022-10-09T05:43:37.217Z,23.78
2022-10-09T05:46:17.940Z,24.21
2022-10-09T05:48:51.009Z,23.52
2022-10-09T05:51:24.337Z,23.27
2022-10-09T05:53:51.592Z,23.14
2022-10-09T05:56:27.546Z,22.72
2022-10-09T05:58:57.042Z,23.77
2022-10-09T06:01:26.627Z,24.75
2022-10-09T06:03:55.539Z,24.00
2022-10-09T06:06:24.869Z,23.98
2022-10-09T06:08:51.990Z,25.01
2022-10-09T06:11:31.688Z,23.72
2022-10-09T06:14:00.725Z,25.32
2022-10-09T06:16:33.465Z,25.81
2022-10-09T06:19:00.538Z,26.18
2022-10-09T06:21:28.467Z,25.95
2022-10-09T06:23:58.558Z,29.84
2022-10-09T06:26:29.207Z,27.06
2022-10-09T06:28:56.811Z,27.53
2022-10-09T06:31:26.847Z,26.83
2022-10-09T06:33:54.457Z,29.11
2022-10-09T06:36:25.134Z,27.97
2022-10-09T06:38:53.150Z,28.92
2022-10-09T06:41:25.681Z,27.13
2022-10-09T06:43:57.279Z,27.84
2022-10-09T06:46:27.342Z,26.38
2022-10-09T06:48:54.360Z,27.52
2022-10-09T06:51:23.373Z,27.59
2022-10-09T06:53:53.243Z,27.11
2022-10-09T06:56:22.535Z,27.97
2022-10-09T06:58:49.723Z,30.54
2022-10-09T07:01:20.736Z,27.33
2022-10-09T07:03:54.139Z,27.49
2022-10-09T07:06:24.272Z,26.93
2022-10-09T07:08:53.535Z,27.40
2022-10-09T07:11:23.408Z,28.15
2022-10-09T07:13:54.398Z,26.35
2022-10-09T07:16:24.411Z,28.25
2022-10-09T07:18:52.006Z,29.50
2022-10-09T07:21:19.917Z,27.90
2022-10-09T07:23:47.416Z,27.73
2022-10-09T07:26:19.131Z,31.19
2022-10-09T07:28:47.299Z,28.60
2022-10-09T07:31:14.895Z,30.12
2022-10-09T07:33:42.001Z,27.53
2022-10-09T07:36:10.027Z,28.85
2022-10-09T07:38:37.374Z,30.48
2022-10-09T07:41:09.421Z,30.07
2022-10-09T07:43:41.065Z,30.66
2022-10-09T07:46:12.258Z,28.34
2022-10-09T07:48:39.462Z,28.28
2022-10-09T07:51:22.398Z,26.10
2022-10-09T07:53:49.711Z,24.81
2022-10-09T07:56:29.164Z,26.20
2022-10-09T07:59:01.435Z,29.49
2022-10-09T08:01:29.386Z,28.63
2022-10-09T08:03:58.381Z,29.52
2022-10-09T08:06:25.230Z,28.43
2022-10-09T08:08:54.198Z,29.35
2022-10-09T08:11:22.459Z,31.32
2022-10-09T08:13:50.542Z,25.64
2022-10-09T08:16:19.599Z,29.08
2022-10-09T08:18:47.321Z,30.26
2022-10-09T08:21:16.952Z,27.92
2022-10-09T08:23:44.314Z,27.01
2022-10-09T08:26:20.090Z,27.17
2022-10-09T08:28:55.423Z,26.43
2022-10-09T08:31:23.204Z,28.22
2022-10-09T08:33:55.094Z,27.80
2022-10-09T08:36:23.498Z,28.15
2022-10-09T08:38:51.494Z,30.26
2022-10-09T08:41:33.112Z,31.67
2022-10-09T08:44:09.915Z,29.45
2022-10-09T08:47:04.577Z,30.20
2022-10-09T08:49:55.221Z,27.60
2022-10-09T08:52:34.818Z,26.52
2022-10-09T08:55:13.185Z,29.54
2022-10-09T08:57:40.170Z,29.51
2022-10-09T09:00:15.648Z,27.99
2022-10-09T09:03:10.966Z,27.80
2022-10-09T09:05:51.970Z,26.75
2022-10-09T09:08:38.091Z,31.02
2022-10-09T09:11:38.730Z,26.69
2022-10-09T09:14:23.993Z,27.59
2022-10-09T09:17:05.767Z,29.06
2022-10-09T09:19:57.290Z,28.00
2022-10-09T09:22:25.166Z,29.90
2022-10-09T09:24:54.665Z,28.03
2022-10-09T09:27:31.656Z,29.88
2022-10-09T09:30:13.406Z,30.61
2022-10-09T09:32:44.422Z,29.56
2022-10-09T09:35:39.962Z,29.62
2022-10-09T09:38:08.139Z,29.08
2022-10-09T09:40:37.255Z,28.01
2022-10-09T09:43:17.761Z,27.72
2022-10-09T09:45:45.828Z,30.75
2022-10-09T09:48:22.524Z,28.15
2022-10-09T09:51:10.260Z,30.12
2022-10-09T09:53:43.636Z,30.48
2022-10-09T09:56:11.054Z,32.27
2022-10-09T09:58:45.799Z,29.55
2022-10-09T10:01:22.708Z,28.93
2022-10-09T10:03:52.250Z,33.10
2022-10-09T10:06:31.611Z,28.35
2022-10-09T10:09:19.258Z,26.61
2022-10-09T10:11:47.550Z,27.33
2022-10-09T10:14:16.378Z,28.71
2022-10-09T10:16:44.094Z,27.84
2022-10-09T10:19:22.742Z,30.76
2022-10-09T10:21:59.746Z,31.16
2022-10-09T10:24:35.773Z,30.28
2022-10-09T10:27:17.125Z,27.78
2022-10-09T10:29:46.973Z,28.22
2022-10-09T10:32:32.894Z,27.43
2022-10-09T10:35:17.192Z,31.81
2022-10-09T10:37:56.980Z,26.24
2022-10-09T10:40:26.947Z,28.88
2022-10-09T10:43:09.301Z,29.89
2022-10-09T10:45:58.549Z,27.69
2022-10-09T10:48:37.267Z,26.64
2022-10-09T10:51:29.218Z,25.09
2022-10-09T10:54:26.871Z,24.06
2022-10-09T10:57:03.183Z,25.92
2022-10-09T10:59:39.832Z,24.71
2022-10-09T11:02:32.518Z,25.87
2022-10-09T11:05:14.649Z,28.95
2022-10-09T11:07:47.337Z,27.37
2022-10-09T11:10:23.170Z,25.22
2022-10-09T11:13:05.146Z,25.09
2022-10-09T11:15:56.443Z,27.18
2022-10-09T11:19:00.496Z,23.65
2022-10-09T11:21:42.822Z,24.69
2022-10-09T11:24:40.162Z,24.94
2022-10-09T11:27:14.005Z,26.15
2022-10-09T11:29:48.429Z,24.76
2022-10-09T11:32:38.520Z,27.66
2022-10-09T11:35:15.842Z,27.47
2022-10-09T11:37:45.437Z,25.26
2022-10-09T11:40:12.066Z,25.58
2022-10-09T11:42:39.631Z,25.80
2022-10-09T11:45:50.135Z,26.63
2022-10-09T11:48:21.818Z,24.50
2022-10-09T11:50:51.412Z,25.09
2022-10-09T11:53:25.071Z,27.61
2022-10-09T11:56:21.848Z,26.84
2022-10-09T11:58:58.602Z,26.79
2022-10-09T12:01:47.616Z,26.68
2022-10-09T12:04:20.913Z,26.12
2022-10-09T12:06:54.847Z,27.29
2022-10-09T12:09:31.426Z,26.61
2022-10-09T12:12:22.924Z,26.14
2022-10-09T12:14:52.039Z,24.78
2022-10-09T12:17:21.579Z,24.92
2022-10-09T12:20:15.658Z,24.68
2022-10-09T12:23:01.424Z,25.20
2022-10-09T12:25:44.203Z,26.00
2022-10-09T12:28:44.839Z,24.25
2022-10-09T12:31:21.851Z,25.17
2022-10-09T12:33:55.150Z,23.28
2022-10-09T12:36:27.103Z,25.30
2022-10-09T12:38:55.377Z,25.25
2022-10-09T12:41:33.826Z,26.45
2022-10-09T12:44:00.714Z,26.57
2022-10-09T12:46:39.323Z,26.12
2022-10-09T12:49:19.273Z,26.11
2022-10-09T12:51:56.355Z,26.08
2022-10-09T12:54:25.648Z,24.46
2022-10-09T12:56:55.202Z,25.51
2022-10-09T12:59:25.119Z,23.16
2022-10-09T13:01:56.842Z,25.81
2022-10-09T13:04:30.954Z,27.32
2022-10-09T13:06:59.819Z,24.80
2022-10-09T13:09:34.204Z,26.48
2022-10-09T13:12:07.934Z,27.50
2022-10-09T13:14:36.529Z,25.64
2022-10-09T13:17:03.682Z,25.58
2022-10-09T13:19:33.645Z,27.19
2022-10-09T13:22:04.014Z,25.66
2022-10-09T13:24:30.755Z,26.93
2022-10-09T13:26:57.557Z,25.61
2022-10-09T13:29:24.466Z,25.79
2022-10-09T13:31:51.194Z,24.93
2022-10-09T13:34:18.931Z,29.61
2022-10-09T13:36:45.727Z,26.19
2022-10-09T13:39:14.906Z,24.72
2022-10-09T13:41:43.810Z,24.86
2022-10-09T13:44:10.930Z,26.32
2022-10-09T13:46:37.848Z,27.23
2022-10-09T13:49:04.657Z,26.21
2022-10-09T13:51:32.104Z,25.41
2022-10-09T13:53:59.081Z,27.11
2022-10-09T13:56:26.167Z,26.44
2022-10-09T13:58:52.997Z,27.19
2022-10-09T14:01:19.904Z,27.75
2022-10-09T14:03:46.642Z,26.66
2022-10-09T14:06:13.406Z,27.79
2022-10-09T14:08:40.141Z,25.65
2022-10-09T14:11:06.955Z,25.88
2022-10-09T14:13:33.718Z,24.53
2022-10-09T14:16:05.305Z,25.43
2022-10-09T14:18:32.123Z,27.26
2022-10-09T14:20:59.162Z,28.14
2022-10-09T14:23:26.420Z,24.91
2022-10-09T14:25:53.194Z,26.30
2022-10-09T14:28:20.008Z,26.25
2022-10-09T14:30:46.827Z,25.86
2022-10-09T14:33:13.554Z,26.74
2022-10-09T14:35:40.347Z,24.33
2022-10-09T14:38:07.109Z,24.88
2022-10-09T14:40:33.798Z,25.90
2022-10-09T14:43:00.761Z,23.05
2022-10-09T14:45:29.292Z,25.83
2022-10-09T14:47:56.971Z,24.90
2022-10-09T14:50:23.746Z,28.59
2022-10-09T14:52:50.915Z,25.81
2022-10-09T14:55:17.971Z,26.57
2022-10-09T14:57:44.802Z,29.08
2022-10-09T15:00:12.684Z,28.94
2022-10-09T15:02:39.667Z,27.42
2022-10-09T15:05:07.370Z,28.57
2022-10-09T15:07:34.424Z,29.22
2022-10-09T15:10:01.160Z,26.71
2022-10-09T15:12:27.887Z,28.74
2022-10-09T15:14:54.753Z,27.83
2022-10-09T15:17:22.115Z,27.06
2022-10-09T15:19:48.822Z,28.45
2022-10-09T15:22:15.753Z,27.28
2022-10-09T15:24:42.414Z,25.32
2022-10-09T15:27:09.491Z,25.71
2022-10-09T15:29:36.249Z,26.63
2022-10-09T15:32:03.906Z,24.45
2022-10-09T15:34:30.901Z,25.15
2022-10-09T15:36:57.621Z,25.63
2022-10-09T15:39:24.420Z,23.45
2022-10-09T15:41:51.109Z,25.02
2022-10-09T15:44:20.088Z,24.97
2022-10-09T15:46:47.859Z,28.21
2022-10-09T15:49:14.966Z,27.29
2022-10-09T15:51:42.351Z,24.38
2022-10-09T15:54:10.894Z,28.84
2022-10-09T15:56:40.134Z,25.82
2022-10-09T15:59:11.022Z,26.06
2022-10-09T16:01:37.756Z,25.58
2022-10-09T16:04:04.554Z,25.52
2022-10-09T16:06:31.369Z,23.56
2022-10-09T16:08:58.702Z,25.94
2022-10-09T16:11:27.005Z,24.65
2022-10-09T16:13:55.677Z,26.50
2022-10-09T16:16:26.089Z,24.43
2022-10-09T16:18:53.772Z,23.30
2022-10-09T16:21:24.406Z,23.39
2022-10-09T16:23:55.848Z,24.50
2022-10-09T16:26:25.435Z,25.37
2022-10-09T16:28:52.823Z,24.80
2022-10-09T16:31:24.518Z,24.73
2022-10-09T16:33:52.145Z,23.17
2022-10-09T16:36:18.867Z,23.46
2022-10-09T16:38:46.474Z,23.01
2022-10-09T16:41:17.963Z,22.93
2022-10-09T16:43:46.491Z,26.93
2022-10-09T16:46:19.404Z,25.23
2022-10-09T16:48:47.181Z,24.63
2022-10-09T16:51:16.831Z,27.81
2022-10-09T16:53:43.854Z,24.67
2022-10-09T16:56:16.519Z,23.02
2022-10-09T16:58:43.821Z,22.81
2022-10-09T17:01:12.466Z,26.12
2022-10-09T17:03:41.410Z,24.70
2022-10-09T17:06:14.532Z,24.51
2022-10-09T17:08:41.743Z,25.68
2022-10-09T17:11:11.746Z,24.86
2022-10-09T17:13:39.625Z,25.01
2022-10-09T17:16:08.191Z,22.39
2022-10-09T17:18:36.127Z,25.49
2022-10-09T17:21:04.634Z,25.44
2022-10-09T17:23:31.791Z,23.81
2022-10-09T17:25:58.965Z,24.10
2022-10-09T17:28:26.826Z,23.71
2022-10-09T17:30:53.535Z,25.10
2022-10-09T17:33:20.362Z,23.46
2022-10-09T17:35:47.077Z,22.84
2022-10-09T17:38:13.933Z,23.77
2022-10-09T17:40:41.697Z,24.22
2022-10-09T17:43:09.030Z,24.23
2022-10-09T17:45:40.652Z,24.57
2022-10-09T17:48:08.681Z,23.05
2022-10-09T17:50:36.381Z,25.12
2022-10-09T17:53:04.121Z,24.22
2022-10-09T17:55:31.237Z,24.45
2022-10-09T17:57:58.418Z,24.30
2022-10-09T18:00:25.279Z,24.47
2022-10-09T18:02:51.999Z,23.03
2022-10-09T18:05:18.750Z,25.87
2022-10-09T18:07:45.397Z,25.36
2022-10-09T18:10:16.036Z,23.97
2022-10-09T18:12:43.766Z,26.14
2022-10-09T18:15:11.070Z,26.85
2022-10-09T18:17:37.815Z,23.56
2022-10-09T18:20:04.999Z,24.10
2022-10-09T18:22:32.040Z,24.33
2022-10-09T18:24:58.777Z,26.55
2022-10-09T18:27:25.885Z,23.79
2022-10-09T18:29:52.576Z,24.37
2022-10-09T18:32:19.298Z,25.38
2022-10-09T18:34:46.679Z,24.40
2022-10-09T18:37:13.865Z,25.05
2022-10-09T18:39:40.581Z,25.56
2022-10-09T18:42:07.375Z,23.49
2022-10-09T18:44:40.481Z,26.32
2022-10-09T18:47:12.824Z,25.07
2022-10-09T18:49:44.353Z,24.58
2022-10-09T18:52:13.016Z,24.89
2022-10-09T18:54:42.859Z,23.33
2022-10-09T18:57:10.903Z,24.20
2022-10-09T18:59:39.143Z,23.72
2022-10-09T19:02:06.569Z,23.15
2022-10-09T19:04:33.695Z,24.70
2022-10-09T19:07:00.943Z,23.66
2022-10-09T19:09:28.059Z,23.19
2022-10-09T19:11:54.942Z,24.45
2022-10-09T19:14:21.834Z,23.93
2022-10-09T19:16:48.707Z,23.36
2022-10-09T19:19:15.471Z,22.30
2022-10-09T19:21:44.062Z,22.60
2022-10-09T19:24:12.921Z,24.15
2022-10-09T19:26:40.269Z,23.18
2022-10-09T19:29:07.949Z,23.55
2022-10-09T19:31:36.129Z,22.98
2022-10-09T19:34:04.774Z,21.44
2022-10-09T19:36:34.275Z,23.15
2022-10-09T19:39:01.757Z,23.35
2022-10-09T19:41:29.059Z,22.96
2022-10-09T19:43:56.103Z,26.05
2022-10-09T19:46:22.888Z,25.99
2022-10-09T19:48:50.505Z,25.60
2022-10-09T19:51:23.026Z,24.87
2022-10-09T19:53:52.080Z,24.14
2022-10-09T19:56:22.775Z,24.23
2022-10-09T19:58:49.746Z,25.57
2022-10-09T20:01:20.231Z,24.74
2022-10-09T20:03:48.250Z,25.45
2022-10-09T20:06:15.218Z,24.99
2022-10-09T20:08:43.371Z,23.95
2022-10-09T20:11:11.661Z,24.77
2022-10-09T20:13:39.637Z,23.61
2022-10-09T20:16:10.185Z,23.52
2022-10-09T20:18:39.453Z,23.55
2022-10-09T20:21:06.661Z,24.35
2022-10-09T20:23:33.365Z,24.96
2022-10-09T20:26:05.266Z,23.26
2022-10-09T20:28:34.157Z,23.84
2022-10-09T20:31:06.492Z,24.02
2022-10-09T20:33:38.408Z,25.75
2022-10-09T20:36:06.330Z,25.69
2022-10-09T20:38:33.694Z,24.43
2022-10-09T20:41:08.265Z,25.10
2022-10-09T20:43:35.873Z,24.79
2022-10-09T20:46:11.779Z,23.40
2022-10-09T20:48:38.476Z,22.74
2022-10-09T20:51:05.758Z,25.90
2022-10-09T20:53:32.854Z,24.61
2022-10-09T20:56:05.060Z,24.36
2022-10-09T20:58:32.553Z,24.84
2022-10-09T21:00:59.857Z,24.67
2022-10-09T21:03:26.973Z,24.18
2022-10-09T21:05:53.819Z,27.74
2022-10-09T21:08:20.545Z,25.78
2022-10-09T21:10:49.526Z,25.97
2022-10-09T21:13:16.865Z,24.46
2022-10-09T21:15:49.041Z,25.85
2022-10-09T21:18:17.922Z,25.18
2022-10-09T21:20:46.265Z,23.83
2022-10-09T21:23:15.572Z,22.99
2022-10-09T21:25:53.387Z,22.80
2022-10-09T21:28:21.842Z,23.96
2022-10-09T21:30:49.719Z,22.67
2022-10-09T21:33:17.600Z,22.24
2022-10-09T21:35:50.262Z,24.34
2022-10-09T21:38:19.302Z,23.17
2022-10-09T21:40:47.113Z,23.62
2022-10-09T21:43:14.257Z,23.27
2022-10-09T21:45:41.472Z,23.44
2022-10-09T21:48:08.808Z,23.71
2022-10-09T21:50:36.801Z,25.05
2022-10-09T21:53:04.515Z,23.02
2022-10-09T21:55:31.514Z,22.85
2022-10-09T21:57:58.648Z,23.27
2022-10-09T22:00:25.877Z,23.09
2022-10-09T22:02:53.050Z,22.99
2022-10-09T22:05:19.967Z,25.49
2022-10-09T22:07:46.770Z,24.60
2022-10-09T22:10:14.533Z,25.47
2022-10-09T22:12:41.277Z,24.77
2022-10-09T22:15:08.213Z,24.18
2022-10-09T22:17:34.955Z,25.38
2022-10-09T22:20:01.731Z,24.96
2022-10-09T22:22:28.841Z,26.05
2022-10-09T22:24:55.949Z,25.68
2022-10-09T22:27:22.669Z,23.90
2022-10-09T22:29:49.342Z,23.98
2022-10-09T22:32:16.248Z,23.18
2022-10-09T22:34:42.974Z,23.85
2022-10-09T22:37:09.702Z,25.62
2022-10-09T22:39:36.387Z,23.74
2022-10-09T22:42:03.113Z,23.13
2022-10-09T22:44:29.906Z,22.39
2022-10-09T22:46:56.686Z,22.76
2022-10-09T22:49:23.375Z,23.61
2022-10-09T22:51:50.214Z,24.33
2022-10-09T22:54:19.202Z,24.23
2022-10-09T22:56:46.500Z,23.12
2022-10-09T22:59:20.482Z,23.58
2022-10-09T23:01:53.570Z,26.13
2022-10-09T23:04:21.995Z,25.61
2022-10-09T23:06:54.390Z,24.61
2022-10-09T23:09:23.084Z,24.88
2022-10-09T23:11:50.066Z,24.40
2022-10-09T23:14:17.216Z,22.95
2022-10-09T23:16:44.319Z,25.28
2022-10-09T23:19:11.879Z,24.85
2022-10-09T23:21:42.165Z,22.78
2022-10-09T23:24:11.598Z,23.69
2022-10-09T23:26:38.585Z,22.80
2022-10-09T23:29:08.882Z,22.81
2022-10-09T23:31:36.674Z,23.23
2022-10-09T23:34:05.159Z,24.10
2022-10-09T23:36:32.236Z,24.72
2022-10-09T23:39:01.516Z,25.06
2022-10-09T23:41:29.622Z,24.24
2022-10-09T23:43:57.327Z,24.06
2022-10-09T23:46:26.994Z,24.44
2022-10-09T23:48:54.007Z,23.86
2022-10-09T23:51:23.131Z,23.07
2022-10-09T23:53:50.098Z,23.44
2022-10-09T23:56:21.545Z,23.60
2022-10-09T23:58:48.691Z,23.50
